Aviation Digital Data Service (ADDS)

Output produced by METARs form (0625 UTC 05 August 2015)
found at http://aviationweather.gov/adds/metars/
 
KLEB 050524Z 0506/0606 VRB03KT 6SM BR SKC 
     FM051200 25005KT P6SM SKC 
     FM051700 28008KT P6SM SCT050